sensor_id;sensor_type;location;lat;lon;timestamp;P1;durP1;ratioP1;P2;durP2;ratioP2
3643;SDS011;1838;50.742;7.158;2023-04-30T00:02:07;48.80;;;28.07;;
3643;SDS011;1838;50.742;7.158;2023-04-30T00:04:33;71.77;;;36.27;;
3643;SDS011;1838;50.742;7.158;2023-04-30T00:06:58;65.07;;;34.47;;
3643;SDS011;1838;50.742;7.158;2023-04-30T00:09:25;61.10;;;33.00;;
3643;SDS011;1838;50.742;7.158;2023-04-30T00:11:50;60.30;;;32.53;;
3643;SDS011;1838;50.742;7.158;2023-04-30T00:14:16;62.63;;;33.47;;
3643;SDS011;1838;50.742;7.158;2023-04-30T00:16:41;47.70;;;26.07;;
3643;SDS011;1838;50.742;7.158;2023-04-30T00:19:07;53.07;;;26.00;;
3643;SDS011;1838;50.742;7.158;2023-04-30T00:21:32;56.83;;;27.20;;
3643;SDS011;1838;50.742;7.158;2023-04-30T00:23:58;62.80;;;33.13;;
3643;SDS011;1838;50.742;7.158;2023-04-30T00:26:27;58.40;;;30.70;;
3643;SDS011;1838;50.742;7.158;2023-04-30T00:28:53;64.10;;;30.57;;
3643;SDS011;1838;50.742;7.158;2023-04-30T00:31:18;54.87;;;30.23;;
3643;SDS011;1838;50.742;7.158;2023-04-30T00:33:44;60.43;;;30.37;;
3643;SDS011;1838;50.742;7.158;2023-04-30T00:36:10;55.23;;;26.80;;
3643;SDS011;1838;50.742;7.158;2023-04-30T00:38:36;56.83;;;27.63;;
3643;SDS011;1838;50.742;7.158;2023-04-30T00:41:01;61.03;;;32.40;;
3643;SDS011;1838;50.742;7.158;2023-04-30T00:43:28;57.37;;;30.77;;
3643;SDS011;1838;50.742;7.158;2023-04-30T00:45:53;74.87;;;32.70;;
3643;SDS011;1838;50.742;7.158;2023-04-30T00:48:19;65.43;;;31.50;;
3643;SDS011;1838;50.742;7.158;2023-04-30T00:50:44;63.03;;;29.33;;
3643;SDS011;1838;50.742;7.158;2023-04-30T00:53:10;61.37;;;30.87;;
3643;SDS011;1838;50.742;7.158;2023-04-30T00:55:36;50.30;;;27.33;;
3643;SDS011;1838;50.742;7.158;2023-04-30T00:58:04;58.20;;;27.70;;
3643;SDS011;1838;50.742;7.158;2023-04-30T01:00:30;49.67;;;27.43;;
3643;SDS011;1838;50.742;7.158;2023-04-30T01:02:55;60.60;;;28.80;;
3643;SDS011;1838;50.742;7.158;2023-04-30T01:05:21;61.40;;;32.83;;
3643;SDS011;1838;50.742;7.158;2023-04-30T01:07:47;140.83;;;34.93;;
3643;SDS011;1838;50.742;7.158;2023-04-30T01:10:13;73.57;;;31.00;;
3643;SDS011;1838;50.742;7.158;2023-04-30T01:12:49;59.87;;;29.87;;
3643;SDS011;1838;50.742;7.158;2023-04-30T01:15:51;44.50;;;24.13;;
3643;SDS011;1838;50.742;7.158;2023-04-30T01:18:43;40.80;;;23.53;;
3643;SDS011;1838;50.742;7.158;2023-04-30T01:21:18;54.70;;;27.50;;
3643;SDS011;1838;50.742;7.158;2023-04-30T01:26:58;56.27;;;28.67;;
3643;SDS011;1838;50.742;7.158;2023-04-30T01:29:33;62.27;;;31.80;;
3643;SDS011;1838;50.742;7.158;2023-04-30T01:32:00;56.00;;;29.40;;
3643;SDS011;1838;50.742;7.158;2023-04-30T01:34:27;59.80;;;29.27;;
3643;SDS011;1838;50.742;7.158;2023-04-30T01:39:32;65.33;;;29.70;;
3643;SDS011;1838;50.742;7.158;2023-04-30T01:42:21;60.10;;;27.83;;
3643;SDS011;1838;50.742;7.158;2023-04-30T01:47:38;57.93;;;30.13;;
3643;SDS011;1838;50.742;7.158;2023-04-30T01:50:28;66.70;;;31.10;;
3643;SDS011;1838;50.742;7.158;2023-04-30T01:53:08;64.13;;;32.47;;
3643;SDS011;1838;50.742;7.158;2023-04-30T01:55:42;73.57;;;33.63;;
3643;SDS011;1838;50.742;7.158;2023-04-30T01:58:12;94.13;;;33.47;;
3643;SDS011;1838;50.742;7.158;2023-04-30T02:00:39;63.27;;;30.70;;
3643;SDS011;1838;50.742;7.158;2023-04-30T02:03:04;61.87;;;29.03;;
3643;SDS011;1838;50.742;7.158;2023-04-30T02:05:30;59.80;;;29.77;;
3643;SDS011;1838;50.742;7.158;2023-04-30T02:07:56;64.43;;;27.97;;
3643;SDS011;1838;50.742;7.158;2023-04-30T02:10:22;56.13;;;28.30;;
3643;SDS011;1838;50.742;7.158;2023-04-30T02:12:49;57.33;;;27.40;;
3643;SDS011;1838;50.742;7.158;2023-04-30T02:15:15;51.63;;;26.17;;
3643;SDS011;1838;50.742;7.158;2023-04-30T02:17:41;53.83;;;25.77;;
3643;SDS011;1838;50.742;7.158;2023-04-30T02:20:07;50.77;;;26.40;;
3643;SDS011;1838;50.742;7.158;2023-04-30T02:22:33;45.77;;;25.23;;
3643;SDS011;1838;50.742;7.158;2023-04-30T02:24:59;82.43;;;34.23;;
3643;SDS011;1838;50.742;7.158;2023-04-30T02:27:24;63.80;;;31.70;;
3643;SDS011;1838;50.742;7.158;2023-04-30T02:29:51;97.30;;;41.33;;
3643;SDS011;1838;50.742;7.158;2023-04-30T02:32:16;70.83;;;31.00;;
3643;SDS011;1838;50.742;7.158;2023-04-30T02:34:42;52.80;;;26.67;;
3643;SDS011;1838;50.742;7.158;2023-04-30T02:37:08;60.80;;;29.93;;
3643;SDS011;1838;50.742;7.158;2023-04-30T02:39:33;65.37;;;31.60;;
3643;SDS011;1838;50.742;7.158;2023-04-30T02:41:59;75.63;;;35.07;;
3643;SDS011;1838;50.742;7.158;2023-04-30T02:44:25;73.37;;;34.13;;
3643;SDS011;1838;50.742;7.158;2023-04-30T02:46:50;76.20;;;35.30;;
3643;SDS011;1838;50.742;7.158;2023-04-30T02:49:16;81.63;;;35.97;;
3643;SDS011;1838;50.742;7.158;2023-04-30T02:51:42;80.43;;;36.27;;
3643;SDS011;1838;50.742;7.158;2023-04-30T02:54:07;82.30;;;35.67;;
3643;SDS011;1838;50.742;7.158;2023-04-30T02:56:33;77.67;;;36.70;;
3643;SDS011;1838;50.742;7.158;2023-04-30T02:58:59;80.70;;;36.70;;
3643;SDS011;1838;50.742;7.158;2023-04-30T03:01:25;91.47;;;38.60;;
3643;SDS011;1838;50.742;7.158;2023-04-30T03:03:50;89.40;;;38.30;;
3643;SDS011;1838;50.742;7.158;2023-04-30T03:06:16;107.83;;;45.00;;
3643;SDS011;1838;50.742;7.158;2023-04-30T03:08:41;102.53;;;43.33;;
3643;SDS011;1838;50.742;7.158;2023-04-30T03:11:07;106.23;;;44.80;;
3643;SDS011;1838;50.742;7.158;2023-04-30T03:13:32;90.43;;;38.97;;
3643;SDS011;1838;50.742;7.158;2023-04-30T03:15:58;95.17;;;40.17;;
3643;SDS011;1838;50.742;7.158;2023-04-30T03:18:25;98.80;;;42.23;;
3643;SDS011;1838;50.742;7.158;2023-04-30T03:20:52;88.50;;;38.43;;
3643;SDS011;1838;50.742;7.158;2023-04-30T03:23:17;106.43;;;43.00;;
3643;SDS011;1838;50.742;7.158;2023-04-30T03:25:43;104.70;;;42.23;;
3643;SDS011;1838;50.742;7.158;2023-04-30T03:28:08;120.70;;;48.37;;
3643;SDS011;1838;50.742;7.158;2023-04-30T03:30:34;139.57;;;45.50;;
3643;SDS011;1838;50.742;7.158;2023-04-30T03:33:00;125.97;;;45.97;;
3643;SDS011;1838;50.742;7.158;2023-04-30T03:35:25;133.53;;;48.90;;
3643;SDS011;1838;50.742;7.158;2023-04-30T03:37:51;132.47;;;48.47;;
3643;SDS011;1838;50.742;7.158;2023-04-30T03:40:16;137.77;;;52.90;;
3643;SDS011;1838;50.742;7.158;2023-04-30T03:42:42;147.57;;;51.13;;
3643;SDS011;1838;50.742;7.158;2023-04-30T03:45:08;128.57;;;50.70;;
3643;SDS011;1838;50.742;7.158;2023-04-30T03:47:34;155.03;;;52.67;;
3643;SDS011;1838;50.742;7.158;2023-04-30T03:50:01;128.70;;;49.67;;
3643;SDS011;1838;50.742;7.158;2023-04-30T03:52:27;176.67;;;50.80;;
3643;SDS011;1838;50.742;7.158;2023-04-30T03:54:53;176.00;;;49.73;;
3643;SDS011;1838;50.742;7.158;2023-04-30T03:57:18;113.10;;;46.40;;
3643;SDS011;1838;50.742;7.158;2023-04-30T03:59:44;134.70;;;48.90;;
3643;SDS011;1838;50.742;7.158;2023-04-30T04:02:10;125.27;;;46.70;;
3643;SDS011;1838;50.742;7.158;2023-04-30T04:04:36;117.73;;;45.00;;
3643;SDS011;1838;50.742;7.158;2023-04-30T04:07:01;118.27;;;44.53;;
3643;SDS011;1838;50.742;7.158;2023-04-30T04:09:27;138.13;;;48.57;;
3643;SDS011;1838;50.742;7.158;2023-04-30T04:11:53;135.80;;;46.10;;
3643;SDS011;1838;50.742;7.158;2023-04-30T04:14:18;113.13;;;44.03;;
3643;SDS011;1838;50.742;7.158;2023-04-30T04:16:44;139.83;;;53.20;;
3643;SDS011;1838;50.742;7.158;2023-04-30T04:19:10;143.50;;;48.30;;
3643;SDS011;1838;50.742;7.158;2023-04-30T04:21:37;138.00;;;50.23;;
3643;SDS011;1838;50.742;7.158;2023-04-30T04:24:02;127.03;;;47.53;;
3643;SDS011;1838;50.742;7.158;2023-04-30T04:26:32;151.53;;;51.57;;
3643;SDS011;1838;50.742;7.158;2023-04-30T04:28:58;151.10;;;49.10;;
3643;SDS011;1838;50.742;7.158;2023-04-30T04:31:24;131.03;;;49.47;;
3643;SDS011;1838;50.742;7.158;2023-04-30T04:33:50;145.07;;;50.70;;
3643;SDS011;1838;50.742;7.158;2023-04-30T04:36:22;143.67;;;53.43;;
3643;SDS011;1838;50.742;7.158;2023-04-30T04:38:47;141.77;;;51.80;;
3643;SDS011;1838;50.742;7.158;2023-04-30T04:41:13;139.23;;;53.40;;
3643;SDS011;1838;50.742;7.158;2023-04-30T04:43:38;176.43;;;53.50;;
3643;SDS011;1838;50.742;7.158;2023-04-30T04:46:05;144.40;;;47.63;;
3643;SDS011;1838;50.742;7.158;2023-04-30T04:48:33;211.40;;;50.50;;
3643;SDS011;1838;50.742;7.158;2023-04-30T04:50:58;198.57;;;46.50;;
3643;SDS011;1838;50.742;7.158;2023-04-30T04:53:24;102.70;;;39.67;;
3643;SDS011;1838;50.742;7.158;2023-04-30T04:55:50;111.37;;;42.43;;
3643;SDS011;1838;50.742;7.158;2023-04-30T04:58:16;201.73;;;45.27;;
3643;SDS011;1838;50.742;7.158;2023-04-30T05:00:41;145.57;;;45.67;;
3643;SDS011;1838;50.742;7.158;2023-04-30T05:03:07;147.73;;;42.60;;
3643;SDS011;1838;50.742;7.158;2023-04-30T05:05:34;94.50;;;43.33;;
3643;SDS011;1838;50.742;7.158;2023-04-30T05:07:59;141.03;;;47.33;;
3643;SDS011;1838;50.742;7.158;2023-04-30T05:10:25;131.63;;;43.43;;
3643;SDS011;1838;50.742;7.158;2023-04-30T05:12:50;150.80;;;48.33;;
3643;SDS011;1838;50.742;7.158;2023-04-30T05:15:16;96.50;;;41.33;;
3643;SDS011;1838;50.742;7.158;2023-04-30T05:17:41;115.23;;;43.87;;
3643;SDS011;1838;50.742;7.158;2023-04-30T05:20:07;132.10;;;47.37;;
3643;SDS011;1838;50.742;7.158;2023-04-30T05:22:33;114.47;;;42.83;;
3643;SDS011;1838;50.742;7.158;2023-04-30T05:24:59;110.47;;;42.57;;
3643;SDS011;1838;50.742;7.158;2023-04-30T05:27:24;93.90;;;40.50;;
3643;SDS011;1838;50.742;7.158;2023-04-30T05:29:50;141.60;;;44.70;;
3643;SDS011;1838;50.742;7.158;2023-04-30T05:32:16;106.17;;;41.37;;
3643;SDS011;1838;50.742;7.158;2023-04-30T05:34:42;106.80;;;43.63;;
3643;SDS011;1838;50.742;7.158;2023-04-30T05:37:07;116.97;;;41.07;;
3643;SDS011;1838;50.742;7.158;2023-04-30T05:39:33;123.27;;;41.03;;
3643;SDS011;1838;50.742;7.158;2023-04-30T05:41:58;115.30;;;43.10;;
3643;SDS011;1838;50.742;7.158;2023-04-30T05:44:24;93.63;;;43.37;;
3643;SDS011;1838;50.742;7.158;2023-04-30T05:46:49;157.17;;;39.87;;
3643;SDS011;1838;50.742;7.158;2023-04-30T05:49:15;90.43;;;42.03;;
3643;SDS011;1838;50.742;7.158;2023-04-30T05:51:40;100.87;;;40.90;;
3643;SDS011;1838;50.742;7.158;2023-04-30T05:54:06;99.93;;;41.97;;
3643;SDS011;1838;50.742;7.158;2023-04-30T05:56:31;93.90;;;41.60;;
3643;SDS011;1838;50.742;7.158;2023-04-30T05:58:57;84.13;;;37.90;;
3643;SDS011;1838;50.742;7.158;2023-04-30T06:01:23;85.87;;;39.60;;
3643;SDS011;1838;50.742;7.158;2023-04-30T06:03:49;89.13;;;38.47;;
3643;SDS011;1838;50.742;7.158;2023-04-30T06:06:14;77.90;;;37.70;;
3643;SDS011;1838;50.742;7.158;2023-04-30T06:08:40;80.33;;;38.87;;
3643;SDS011;1838;50.742;7.158;2023-04-30T06:11:08;96.57;;;39.67;;
3643;SDS011;1838;50.742;7.158;2023-04-30T06:13:34;79.83;;;38.80;;
3643;SDS011;1838;50.742;7.158;2023-04-30T06:16:00;92.77;;;40.73;;
3643;SDS011;1838;50.742;7.158;2023-04-30T06:18:26;84.20;;;39.63;;
3643;SDS011;1838;50.742;7.158;2023-04-30T06:20:51;91.80;;;42.97;;
3643;SDS011;1838;50.742;7.158;2023-04-30T06:23:17;87.33;;;41.33;;
3643;SDS011;1838;50.742;7.158;2023-04-30T06:25:42;79.30;;;40.30;;
3643;SDS011;1838;50.742;7.158;2023-04-30T06:28:08;82.43;;;39.90;;
3643;SDS011;1838;50.742;7.158;2023-04-30T06:30:34;78.90;;;38.23;;
3643;SDS011;1838;50.742;7.158;2023-04-30T06:33:00;79.70;;;39.60;;
3643;SDS011;1838;50.742;7.158;2023-04-30T06:35:26;71.93;;;36.50;;
3643;SDS011;1838;50.742;7.158;2023-04-30T06:37:51;84.40;;;39.17;;
3643;SDS011;1838;50.742;7.158;2023-04-30T06:40:17;78.23;;;36.90;;
3643;SDS011;1838;50.742;7.158;2023-04-30T06:42:43;63.90;;;33.90;;
3643;SDS011;1838;50.742;7.158;2023-04-30T06:45:08;68.47;;;35.93;;
3643;SDS011;1838;50.742;7.158;2023-04-30T06:47:34;72.60;;;35.70;;
3643;SDS011;1838;50.742;7.158;2023-04-30T06:50:01;64.53;;;34.40;;
3643;SDS011;1838;50.742;7.158;2023-04-30T06:52:28;73.47;;;36.03;;
3643;SDS011;1838;50.742;7.158;2023-04-30T06:54:54;75.17;;;36.37;;
3643;SDS011;1838;50.742;7.158;2023-04-30T06:57:20;64.40;;;34.27;;
3643;SDS011;1838;50.742;7.158;2023-04-30T06:59:46;61.50;;;33.00;;
3643;SDS011;1838;50.742;7.158;2023-04-30T07:02:11;53.70;;;31.00;;
3643;SDS011;1838;50.742;7.158;2023-04-30T07:04:37;56.30;;;32.50;;
3643;SDS011;1838;50.742;7.158;2023-04-30T07:07:02;62.07;;;32.37;;
3643;SDS011;1838;50.742;7.158;2023-04-30T07:09:28;59.27;;;33.43;;
3643;SDS011;1838;50.742;7.158;2023-04-30T07:11:54;55.53;;;31.77;;
3643;SDS011;1838;50.742;7.158;2023-04-30T07:14:20;46.53;;;28.40;;
3643;SDS011;1838;50.742;7.158;2023-04-30T07:16:45;50.13;;;30.57;;
3643;SDS011;1838;50.742;7.158;2023-04-30T07:19:13;46.67;;;26.50;;
3643;SDS011;1838;50.742;7.158;2023-04-30T07:21:39;52.23;;;27.30;;
3643;SDS011;1838;50.742;7.158;2023-04-30T07:24:04;44.77;;;27.70;;
3643;SDS011;1838;50.742;7.158;2023-04-30T07:26:30;41.30;;;25.97;;
3643;SDS011;1838;50.742;7.158;2023-04-30T07:28:55;35.70;;;24.23;;
3643;SDS011;1838;50.742;7.158;2023-04-30T07:31:21;31.70;;;21.97;;
3643;SDS011;1838;50.742;7.158;2023-04-30T07:33:46;32.97;;;23.90;;
3643;SDS011;1838;50.742;7.158;2023-04-30T07:36:14;29.73;;;20.73;;
3643;SDS011;1838;50.742;7.158;2023-04-30T07:38:40;26.70;;;20.13;;
3643;SDS011;1838;50.742;7.158;2023-04-30T07:41:06;25.50;;;19.20;;
3643;SDS011;1838;50.742;7.158;2023-04-30T07:43:33;27.63;;;20.97;;
3643;SDS011;1838;50.742;7.158;2023-04-30T07:45:59;26.27;;;20.10;;
3643;SDS011;1838;50.742;7.158;2023-04-30T07:48:25;22.33;;;17.77;;
3643;SDS011;1838;50.742;7.158;2023-04-30T07:50:50;22.97;;;18.37;;
3643;SDS011;1838;50.742;7.158;2023-04-30T07:53:15;24.30;;;19.83;;
3643;SDS011;1838;50.742;7.158;2023-04-30T07:55:41;21.93;;;17.00;;
3643;SDS011;1838;50.742;7.158;2023-04-30T07:58:06;23.60;;;19.23;;
3643;SDS011;1838;50.742;7.158;2023-04-30T08:00:32;24.70;;;19.67;;
3643;SDS011;1838;50.742;7.158;2023-04-30T08:02:58;25.50;;;18.70;;
3643;SDS011;1838;50.742;7.158;2023-04-30T08:05:24;21.13;;;17.57;;
3643;SDS011;1838;50.742;7.158;2023-04-30T08:07:51;22.23;;;17.43;;
3643;SDS011;1838;50.742;7.158;2023-04-30T08:10:16;23.07;;;17.67;;
3643;SDS011;1838;50.742;7.158;2023-04-30T08:12:42;18.40;;;16.43;;
3643;SDS011;1838;50.742;7.158;2023-04-30T08:15:08;21.00;;;16.17;;
3643;SDS011;1838;50.742;7.158;2023-04-30T08:17:34;18.03;;;15.33;;
3643;SDS011;1838;50.742;7.158;2023-04-30T08:20:00;20.20;;;14.63;;
3643;SDS011;1838;50.742;7.158;2023-04-30T08:22:27;18.57;;;16.07;;
3643;SDS011;1838;50.742;7.158;2023-04-30T08:24:53;16.77;;;14.93;;
3643;SDS011;1838;50.742;7.158;2023-04-30T08:27:19;18.70;;;15.20;;
3643;SDS011;1838;50.742;7.158;2023-04-30T08:29:45;15.97;;;14.30;;
3643;SDS011;1838;50.742;7.158;2023-04-30T08:32:11;15.33;;;12.83;;
3643;SDS011;1838;50.742;7.158;2023-04-30T08:34:36;13.17;;;11.77;;
3643;SDS011;1838;50.742;7.158;2023-04-30T08:37:04;14.80;;;12.20;;
3643;SDS011;1838;50.742;7.158;2023-04-30T08:39:30;15.03;;;11.80;;
3643;SDS011;1838;50.742;7.158;2023-04-30T08:41:56;18.17;;;14.03;;
3643;SDS011;1838;50.742;7.158;2023-04-30T08:44:26;13.60;;;11.37;;
3643;SDS011;1838;50.742;7.158;2023-04-30T08:46:52;13.40;;;10.77;;
3643;SDS011;1838;50.742;7.158;2023-04-30T08:49:22;11.13;;;10.03;;
3643;SDS011;1838;50.742;7.158;2023-04-30T08:51:49;6.80;;;6.20;;
3643;SDS011;1838;50.742;7.158;2023-04-30T08:54:14;5.87;;;5.37;;
3643;SDS011;1838;50.742;7.158;2023-04-30T08:56:43;6.53;;;5.93;;
3643;SDS011;1838;50.742;7.158;2023-04-30T08:59:09;8.83;;;7.87;;
3643;SDS011;1838;50.742;7.158;2023-04-30T09:01:36;8.37;;;7.50;;
3643;SDS011;1838;50.742;7.158;2023-04-30T09:04:02;7.40;;;6.33;;
3643;SDS011;1838;50.742;7.158;2023-04-30T09:06:28;11.43;;;7.07;;
3643;SDS011;1838;50.742;7.158;2023-04-30T09:08:55;7.30;;;5.60;;
3643;SDS011;1838;50.742;7.158;2023-04-30T09:11:27;6.80;;;5.27;;
3643;SDS011;1838;50.742;7.158;2023-04-30T09:13:55;6.00;;;4.40;;
3643;SDS011;1838;50.742;7.158;2023-04-30T09:16:25;4.57;;;4.17;;
3643;SDS011;1838;50.742;7.158;2023-04-30T09:18:56;3.90;;;3.47;;
3643;SDS011;1838;50.742;7.158;2023-04-30T09:21:33;3.87;;;3.27;;
3643;SDS011;1838;50.742;7.158;2023-04-30T09:24:00;4.73;;;3.20;;
3643;SDS011;1838;50.742;7.158;2023-04-30T09:26:30;5.60;;;3.43;;
3643;SDS011;1838;50.742;7.158;2023-04-30T09:29:00;3.60;;;2.80;;
3643;SDS011;1838;50.742;7.158;2023-04-30T09:31:31;2.70;;;2.50;;
3643;SDS011;1838;50.742;7.158;2023-04-30T09:33:58;2.97;;;2.47;;
3643;SDS011;1838;50.742;7.158;2023-04-30T09:36:24;2.50;;;2.30;;
3643;SDS011;1838;50.742;7.158;2023-04-30T09:38:50;6.23;;;1.87;;
3643;SDS011;1838;50.742;7.158;2023-04-30T09:41:25;2.23;;;2.03;;
3643;SDS011;1838;50.742;7.158;2023-04-30T09:43:53;3.80;;;1.90;;
3643;SDS011;1838;50.742;7.158;2023-04-30T09:46:19;5.43;;;1.90;;
3643;SDS011;1838;50.742;7.158;2023-04-30T09:48:46;2.07;;;1.77;;
3643;SDS011;1838;50.742;7.158;2023-04-30T09:51:19;2.80;;;2.60;;
3643;SDS011;1838;50.742;7.158;2023-04-30T09:53:45;3.67;;;2.40;;
3643;SDS011;1838;50.742;7.158;2023-04-30T09:56:14;2.80;;;2.40;;
3643;SDS011;1838;50.742;7.158;2023-04-30T09:58:45;2.53;;;2.00;;
3643;SDS011;1838;50.742;7.158;2023-04-30T10:01:16;2.80;;;2.53;;
3643;SDS011;1838;50.742;7.158;2023-04-30T10:03:42;3.27;;;2.70;;
3643;SDS011;1838;50.742;7.158;2023-04-30T10:06:11;3.13;;;2.30;;
3643;SDS011;1838;50.742;7.158;2023-04-30T10:08:41;3.07;;;2.40;;
3643;SDS011;1838;50.742;7.158;2023-04-30T10:11:08;2.43;;;2.23;;
3643;SDS011;1838;50.742;7.158;2023-04-30T10:13:42;2.50;;;2.20;;
3643;SDS011;1838;50.742;7.158;2023-04-30T10:18:51;1.97;;;1.63;;
3643;SDS011;1838;50.742;7.158;2023-04-30T10:21:19;3.27;;;2.30;;
3643;SDS011;1838;50.742;7.158;2023-04-30T10:23:47;2.10;;;1.80;;
3643;SDS011;1838;50.742;7.158;2023-04-30T10:26:13;3.20;;;2.00;;
3643;SDS011;1838;50.742;7.158;2023-04-30T10:28:41;2.37;;;1.93;;
3643;SDS011;1838;50.742;7.158;2023-04-30T10:31:06;4.77;;;2.10;;
3643;SDS011;1838;50.742;7.158;2023-04-30T10:33:43;3.30;;;2.10;;
3643;SDS011;1838;50.742;7.158;2023-04-30T10:36:21;2.43;;;1.70;;
3643;SDS011;1838;50.742;7.158;2023-04-30T10:39:02;2.17;;;1.50;;
3643;SDS011;1838;50.742;7.158;2023-04-30T10:41:29;4.27;;;1.50;;
3643;SDS011;1838;50.742;7.158;2023-04-30T10:43:56;2.77;;;1.50;;
3643;SDS011;1838;50.742;7.158;2023-04-30T10:46:24;2.80;;;1.43;;
3643;SDS011;1838;50.742;7.158;2023-04-30T10:48:55;3.77;;;1.57;;
3643;SDS011;1838;50.742;7.158;2023-04-30T10:51:21;1.93;;;1.33;;
3643;SDS011;1838;50.742;7.158;2023-04-30T10:53:50;1.70;;;1.20;;
3643;SDS011;1838;50.742;7.158;2023-04-30T10:56:30;1.60;;;1.10;;
3643;SDS011;1838;50.742;7.158;2023-04-30T10:59:00;1.60;;;1.10;;
3643;SDS011;1838;50.742;7.158;2023-04-30T11:01:28;1.80;;;1.20;;
3643;SDS011;1838;50.742;7.158;2023-04-30T11:04:04;1.90;;;1.50;;
3643;SDS011;1838;50.742;7.158;2023-04-30T11:09:16;1.60;;;1.03;;
3643;SDS011;1838;50.742;7.158;2023-04-30T11:11:45;2.87;;;1.40;;
3643;SDS011;1838;50.742;7.158;2023-04-30T11:14:11;2.00;;;1.07;;
3643;SDS011;1838;50.742;7.158;2023-04-30T11:16:45;1.43;;;1.07;;
3643;SDS011;1838;50.742;7.158;2023-04-30T11:19:13;1.67;;;1.13;;
3643;SDS011;1838;50.742;7.158;2023-04-30T11:21:40;2.53;;;1.00;;
3643;SDS011;1838;50.742;7.158;2023-04-30T11:24:06;1.80;;;1.10;;
3643;SDS011;1838;50.742;7.158;2023-04-30T11:29:27;1.50;;;1.00;;
3643;SDS011;1838;50.742;7.158;2023-04-30T11:31:54;1.47;;;0.90;;
3643;SDS011;1838;50.742;7.158;2023-04-30T11:34:20;2.87;;;1.10;;
3643;SDS011;1838;50.742;7.158;2023-04-30T11:36:47;1.63;;;1.37;;
3643;SDS011;1838;50.742;7.158;2023-04-30T11:39:13;1.60;;;1.00;;
3643;SDS011;1838;50.742;7.158;2023-04-30T11:41:41;1.80;;;0.90;;
3643;SDS011;1838;50.742;7.158;2023-04-30T11:44:24;1.90;;;1.20;;
3643;SDS011;1838;50.742;7.158;2023-04-30T11:46:50;2.10;;;1.17;;
3643;SDS011;1838;50.742;7.158;2023-04-30T11:49:16;1.70;;;1.20;;
3643;SDS011;1838;50.742;7.158;2023-04-30T11:51:41;4.50;;;1.27;;
3643;SDS011;1838;50.742;7.158;2023-04-30T11:54:12;2.13;;;1.00;;
3643;SDS011;1838;50.742;7.158;2023-04-30T11:56:38;2.90;;;1.30;;
3643;SDS011;1838;50.742;7.158;2023-04-30T11:59:09;1.80;;;1.10;;
3643;SDS011;1838;50.742;7.158;2023-04-30T12:01:35;2.67;;;1.17;;
3643;SDS011;1838;50.742;7.158;2023-04-30T12:04:01;4.50;;;1.20;;
3643;SDS011;1838;50.742;7.158;2023-04-30T12:06:30;1.70;;;1.00;;
3643;SDS011;1838;50.742;7.158;2023-04-30T12:08:56;2.03;;;1.20;;
3643;SDS011;1838;50.742;7.158;2023-04-30T12:11:26;2.40;;;1.03;;
3643;SDS011;1838;50.742;7.158;2023-04-30T12:13:54;1.73;;;1.17;;
3643;SDS011;1838;50.742;7.158;2023-04-30T12:16:22;2.53;;;1.07;;
3643;SDS011;1838;50.742;7.158;2023-04-30T12:18:49;1.60;;;1.00;;
3643;SDS011;1838;50.742;7.158;2023-04-30T12:21:15;3.80;;;0.93;;
3643;SDS011;1838;50.742;7.158;2023-04-30T12:23:41;1.67;;;0.90;;
3643;SDS011;1838;50.742;7.158;2023-04-30T12:26:09;1.43;;;0.80;;
3643;SDS011;1838;50.742;7.158;2023-04-30T12:28:34;2.80;;;0.97;;
3643;SDS011;1838;50.742;7.158;2023-04-30T12:31:00;1.60;;;0.93;;
3643;SDS011;1838;50.742;7.158;2023-04-30T12:33:30;1.40;;;0.80;;
3643;SDS011;1838;50.742;7.158;2023-04-30T12:35:56;1.90;;;1.00;;
3643;SDS011;1838;50.742;7.158;2023-04-30T12:38:24;2.83;;;0.90;;
3643;SDS011;1838;50.742;7.158;2023-04-30T12:40:50;1.40;;;0.90;;
3643;SDS011;1838;50.742;7.158;2023-04-30T12:43:15;1.97;;;0.90;;
3643;SDS011;1838;50.742;7.158;2023-04-30T12:45:46;1.40;;;0.80;;
3643;SDS011;1838;50.742;7.158;2023-04-30T12:48:16;4.47;;;1.07;;
3643;SDS011;1838;50.742;7.158;2023-04-30T12:50:47;1.77;;;0.93;;
3643;SDS011;1838;50.742;7.158;2023-04-30T12:53:23;1.50;;;0.80;;
3643;SDS011;1838;50.742;7.158;2023-04-30T12:56:07;1.50;;;0.90;;
3643;SDS011;1838;50.742;7.158;2023-04-30T12:58:36;1.60;;;0.80;;
3643;SDS011;1838;50.742;7.158;2023-04-30T13:01:02;1.60;;;0.90;;
3643;SDS011;1838;50.742;7.158;2023-04-30T13:03:27;1.50;;;0.90;;
3643;SDS011;1838;50.742;7.158;2023-04-30T13:05:53;1.40;;;0.90;;
3643;SDS011;1838;50.742;7.158;2023-04-30T13:08:19;3.20;;;1.03;;
3643;SDS011;1838;50.742;7.158;2023-04-30T13:10:45;5.40;;;0.97;;
3643;SDS011;1838;50.742;7.158;2023-04-30T13:13:12;1.60;;;0.80;;
3643;SDS011;1838;50.742;7.158;2023-04-30T13:15:38;2.60;;;0.90;;
3643;SDS011;1838;50.742;7.158;2023-04-30T13:18:04;1.90;;;1.40;;
3643;SDS011;1838;50.742;7.158;2023-04-30T13:20:33;2.10;;;1.10;;
3643;SDS011;1838;50.742;7.158;2023-04-30T13:23:02;1.40;;;0.80;;
3643;SDS011;1838;50.742;7.158;2023-04-30T13:25:28;1.70;;;1.00;;
3643;SDS011;1838;50.742;7.158;2023-04-30T13:27:54;1.70;;;1.00;;
3643;SDS011;1838;50.742;7.158;2023-04-30T13:30:19;1.70;;;0.90;;
3643;SDS011;1838;50.742;7.158;2023-04-30T13:32:46;2.13;;;1.27;;
3643;SDS011;1838;50.742;7.158;2023-04-30T13:35:12;1.70;;;1.13;;
3643;SDS011;1838;50.742;7.158;2023-04-30T13:37:37;3.60;;;1.40;;
3643;SDS011;1838;50.742;7.158;2023-04-30T13:40:06;2.10;;;1.00;;
3643;SDS011;1838;50.742;7.158;2023-04-30T13:42:32;2.80;;;1.07;;
3643;SDS011;1838;50.742;7.158;2023-04-30T13:44:58;2.30;;;1.10;;
3643;SDS011;1838;50.742;7.158;2023-04-30T13:47:23;1.93;;;0.90;;
3643;SDS011;1838;50.742;7.158;2023-04-30T13:49:49;1.73;;;1.20;;
3643;SDS011;1838;50.742;7.158;2023-04-30T13:52:14;2.10;;;1.10;;
3643;SDS011;1838;50.742;7.158;2023-04-30T13:54:40;1.53;;;0.90;;
3643;SDS011;1838;50.742;7.158;2023-04-30T13:57:06;1.97;;;1.10;;
3643;SDS011;1838;50.742;7.158;2023-04-30T13:59:31;2.10;;;1.20;;
3643;SDS011;1838;50.742;7.158;2023-04-30T14:01:57;1.50;;;1.00;;
3643;SDS011;1838;50.742;7.158;2023-04-30T14:04:23;1.70;;;1.20;;
3643;SDS011;1838;50.742;7.158;2023-04-30T14:06:48;1.50;;;0.87;;
3643;SDS011;1838;50.742;7.158;2023-04-30T14:09:15;4.00;;;1.10;;
3643;SDS011;1838;50.742;7.158;2023-04-30T14:11:40;1.40;;;0.90;;
3643;SDS011;1838;50.742;7.158;2023-04-30T14:14:06;1.50;;;0.80;;
3643;SDS011;1838;50.742;7.158;2023-04-30T14:16:33;1.40;;;0.90;;
3643;SDS011;1838;50.742;7.158;2023-04-30T14:18:59;1.67;;;0.90;;
3643;SDS011;1838;50.742;7.158;2023-04-30T14:21:24;3.03;;;1.20;;
3643;SDS011;1838;50.742;7.158;2023-04-30T14:23:51;1.50;;;0.90;;
3643;SDS011;1838;50.742;7.158;2023-04-30T14:26:16;2.03;;;1.20;;
3643;SDS011;1838;50.742;7.158;2023-04-30T14:28:42;1.93;;;1.00;;
3643;SDS011;1838;50.742;7.158;2023-04-30T14:31:08;2.00;;;0.90;;
3643;SDS011;1838;50.742;7.158;2023-04-30T14:33:34;1.40;;;0.90;;
3643;SDS011;1838;50.742;7.158;2023-04-30T14:36:00;1.43;;;0.80;;
3643;SDS011;1838;50.742;7.158;2023-04-30T14:38:26;1.40;;;0.83;;
3643;SDS011;1838;50.742;7.158;2023-04-30T14:40:51;1.50;;;0.90;;
3643;SDS011;1838;50.742;7.158;2023-04-30T14:43:17;1.50;;;0.80;;
3643;SDS011;1838;50.742;7.158;2023-04-30T14:45:43;2.07;;;0.90;;
3643;SDS011;1838;50.742;7.158;2023-04-30T14:48:09;1.40;;;0.70;;
3643;SDS011;1838;50.742;7.158;2023-04-30T14:50:35;1.53;;;0.70;;
3643;SDS011;1838;50.742;7.158;2023-04-30T14:53:02;1.50;;;0.90;;
3643;SDS011;1838;50.742;7.158;2023-04-30T14:55:30;2.30;;;1.00;;
3643;SDS011;1838;50.742;7.158;2023-04-30T14:57:57;1.50;;;0.70;;
3643;SDS011;1838;50.742;7.158;2023-04-30T15:00:23;3.80;;;0.77;;
3643;SDS011;1838;50.742;7.158;2023-04-30T15:02:48;1.70;;;1.00;;
3643;SDS011;1838;50.742;7.158;2023-04-30T15:05:14;1.40;;;0.90;;
3643;SDS011;1838;50.742;7.158;2023-04-30T15:07:40;1.50;;;0.70;;
3643;SDS011;1838;50.742;7.158;2023-04-30T15:10:06;1.60;;;0.70;;
3643;SDS011;1838;50.742;7.158;2023-04-30T15:12:32;2.13;;;0.90;;
3643;SDS011;1838;50.742;7.158;2023-04-30T15:14:59;3.30;;;0.80;;